Time;durP1;ratioP1;P1;durP2;ratioP2;P2;SDS_P1;SDS_P2;PMS_P1;PMS_P2;Temp;Humidity;BMP_temperature;BMP_pressure;BME280_temperature;BME280_humidity;BME280_pressure;Samples;Min_cycle;Max_cycle;Signal;HPM_P1;HPM_P2
2021/07/09 00:01:56;;;;;;;3.00;2.80;;;21.70;99.90;;;;;;4975737;28;20205;-77
2021/07/09 00:04:24;;;;;;;3.95;3.65;;;21.70;99.90;;;;;;4975371;28;20659;-77
2021/07/09 00:06:52;;;;;;;3.50;3.20;;;21.50;99.90;;;;;;4974881;28;20214;-77
2021/07/09 00:09:20;;;;;;;3.83;3.40;;;21.70;99.90;;;;;;4975122;28;20224;-77
2021/07/09 00:11:49;;;;;;;3.80;3.40;;;21.60;99.90;;;;;;4965519;28;20210;-85
2021/07/09 00:14:18;;;;;;;2.70;2.50;;;21.60;99.90;;;;;;4956525;28;20230;-76
2021/07/09 00:16:46;;;;;;;3.10;2.90;;;21.60;99.90;;;;;;4956178;28;20213;-77
2021/07/09 00:19:12;;;;;;;3.50;3.20;;;22.00;99.90;;;;;;4953631;28;20210;-76
2021/07/09 00:21:39;;;;;;;3.45;3.15;;;21.60;99.90;;;;;;4962961;28;20332;-77
2021/07/09 00:24:08;;;;;;;4.72;3.25;;;21.50;99.90;;;;;;4956518;28;20517;-77
2021/07/09 00:26:36;;;;;;;3.40;3.10;;;21.60;99.90;;;;;;4952828;28;20237;-77
2021/07/09 00:29:04;;;;;;;3.20;2.90;;;21.60;99.90;;;;;;4970201;28;20202;-76
2021/07/09 00:31:32;;;;;;;3.72;3.42;;;20.60;99.90;;;;;;4974358;28;20658;-75
2021/07/09 00:33:59;;;;;;;3.70;3.40;;;21.50;99.90;;;;;;4972536;28;20210;-76
2021/07/09 00:36:27;;;;;;;3.45;3.15;;;21.40;99.90;;;;;;4975325;28;20217;-76
2021/07/09 00:38:54;;;;;;;3.67;3.30;;;21.40;99.90;;;;;;4975297;28;20209;-76
2021/07/09 00:41:22;;;;;;;3.33;3.00;;;21.50;99.90;;;;;;4974427;28;20209;-76
2021/07/09 00:43:49;;;;;;;3.45;3.13;;;21.50;99.90;;;;;;4974099;28;20271;-76
2021/07/09 00:46:16;;;;;;;5.82;3.53;;;21.50;99.90;;;;;;4974629;28;20571;-76
2021/07/09 00:48:42;;;;;;;3.97;3.65;;;21.40;99.90;;;;;;4975428;28;20213;-76
2021/07/09 00:51:11;;;;;;;3.47;3.28;;;21.50;99.90;;;;;;4973045;28;20205;-76
2021/07/09 00:53:38;;;;;;;3.70;3.40;;;21.60;99.90;;;;;;4975280;28;20231;-76
2021/07/09 00:56:07;;;;;;;3.50;3.05;;;21.40;99.90;;;;;;4966624;28;21422;-76
2021/07/09 00:58:35;;;;;;;4.20;3.90;;;21.40;99.90;;;;;;4971981;28;20207;-75
2021/07/09 01:01:02;;;;;;;3.50;3.20;;;21.40;99.90;;;;;;4974228;28;20210;-75
2021/07/09 01:03:29;;;;;;;3.50;3.30;;;21.30;99.90;;;;;;4974769;28;20198;-75
2021/07/09 01:05:55;;;;;;;3.63;3.28;;;21.30;99.90;;;;;;4973980;28;20202;-75
2021/07/09 01:08:22;;;;;;;3.75;3.38;;;21.40;99.90;;;;;;4973551;28;20202;-75
2021/07/09 01:10:49;;;;;;;5.55;3.70;;;21.30;99.90;;;;;;4965393;28;20234;-75
2021/07/09 01:13:17;;;;;;;3.53;3.22;;;21.30;99.90;;;;;;4967484;28;20301;-75
2021/07/09 01:15:45;;;;;;;3.63;3.33;;;21.20;99.90;;;;;;4972929;28;20229;-75
2021/07/09 01:18:12;;;;;;;4.70;3.00;;;21.30;99.90;;;;;;4970534;28;20206;-76
2021/07/09 01:20:39;;;;;;;3.38;2.85;;;21.30;99.90;;;;;;4973617;28;20252;-77
2021/07/09 01:23:07;;;;;;;3.47;3.17;;;21.20;99.90;;;;;;4973405;28;20213;-77
2021/07/09 01:25:36;;;;;;;4.07;3.67;;;21.10;99.90;;;;;;4961998;28;20221;-77
2021/07/09 01:28:06;;;;;;;3.58;3.38;;;21.30;99.90;;;;;;4966971;28;20706;-78
2021/07/09 01:30:35;;;;;;;3.35;3.05;;;21.20;99.90;;;;;;4971541;28;20229;-75
2021/07/09 01:33:02;;;;;;;3.60;3.30;;;21.00;99.90;;;;;;4972985;28;20218;-75
2021/07/09 01:35:30;;;;;;;4.10;3.80;;;21.20;99.90;;;;;;4973460;28;20233;-75
2021/07/09 01:38:00;;;;;;;3.00;2.78;;;21.10;99.90;;;;;;4973026;28;20206;-75
2021/07/09 01:40:28;;;;;;;4.22;3.92;;;21.10;99.90;;;;;;4963819;28;20209;-75
2021/07/09 01:42:57;;;;;;;3.67;3.38;;;21.30;99.90;;;;;;4973435;28;20210;-75
2021/07/09 01:45:24;;;;;;;3.30;3.10;;;21.10;99.90;;;;;;4971547;28;20257;-75
2021/07/09 01:47:53;;;;;;;3.10;2.90;;;21.10;99.90;;;;;;4970152;28;20285;-77
2021/07/09 01:50:20;;;;;;;3.22;2.92;;;21.20;99.90;;;;;;4972946;28;20244;-77
2021/07/09 01:52:46;;;;;;;4.00;3.70;;;21.10;99.90;;;;;;4974364;28;20213;-75
2021/07/09 01:55:15;;;;;;;5.28;3.42;;;21.20;99.90;;;;;;4972979;28;20218;-75
2021/07/09 01:57:42;;;;;;;3.83;3.53;;;21.10;99.90;;;;;;4958387;28;20202;-78
2021/07/09 02:00:13;;;;;;;4.07;3.67;;;21.10;99.90;;;;;;4973271;28;20194;-76
2021/07/09 02:02:40;;;;;;;3.80;3.38;;;21.10;99.90;;;;;;4974180;28;20216;-76
2021/07/09 02:05:09;;;;;;;3.47;3.17;;;21.10;99.90;;;;;;4962300;28;20547;-76
2021/07/09 02:07:37;;;;;;;3.88;3.55;;;21.10;99.90;;;;;;4962107;28;20268;-76
2021/07/09 02:10:07;;;;;;;3.20;2.90;;;20.80;99.90;;;;;;4972342;28;20221;-76
2021/07/09 02:12:34;;;;;;;3.45;3.15;;;21.00;99.90;;;;;;4971279;28;20674;-76
2021/07/09 02:15:04;;;;;;;3.40;3.10;;;21.10;99.90;;;;;;4973544;28;20229;-76
2021/07/09 02:17:32;;;;;;;5.32;3.47;;;21.00;99.90;;;;;;4973264;28;20202;-76
2021/07/09 02:19:59;;;;;;;5.18;3.08;;;21.00;99.90;;;;;;4972920;28;20217;-76
2021/07/09 02:22:25;;;;;;;13.35;3.13;;;21.00;99.90;;;;;;4970585;28;20213;-76
2021/07/09 02:24:52;;;;;;;5.63;3.85;;;20.80;99.90;;;;;;4965790;28;20200;-76
2021/07/09 02:27:19;;;;;;;3.92;3.63;;;20.80;99.90;;;;;;4959048;28;20230;-76
2021/07/09 02:29:45;;;;;;;3.85;3.55;;;20.90;99.90;;;;;;4971192;28;20214;-76
2021/07/09 02:32:13;;;;;;;3.00;2.80;;;21.00;99.90;;;;;;4973540;28;20245;-76
2021/07/09 02:34:42;;;;;;;3.33;3.03;;;21.00;99.90;;;;;;4969568;28;20232;-76
2021/07/09 02:37:11;;;;;;;4.05;3.75;;;20.80;99.90;;;;;;4964245;28;20213;-76
2021/07/09 02:39:40;;;;;;;3.90;3.60;;;21.00;99.90;;;;;;4970156;28;20257;-76
2021/07/09 02:42:07;;;;;;;3.33;3.13;;;20.90;99.90;;;;;;4966866;28;20209;-76
2021/07/09 02:44:35;;;;;;;3.65;3.35;;;20.90;99.90;;;;;;4971708;28;20654;-76
2021/07/09 02:47:02;;;;;;;3.05;2.85;;;20.90;99.90;;;;;;4973029;28;20365;-76
2021/07/09 02:49:29;;;;;;;3.30;3.03;;;20.90;99.90;;;;;;4970716;28;20217;-77
2021/07/09 02:51:57;;;;;;;4.60;4.20;;;22.10;99.90;;;;;;4963741;28;20233;-77
2021/07/09 02:54:24;;;;;;;3.30;3.05;;;20.70;99.90;;;;;;4958277;28;20209;-77
2021/07/09 02:56:50;;;;;;;3.47;3.17;;;20.80;99.90;;;;;;4958741;28;20670;-76
2021/07/09 02:59:17;;;;;;;3.20;3.00;;;20.80;99.90;;;;;;4967309;28;20303;-75
2021/07/09 03:01:44;;;;;;;3.25;2.92;;;20.80;99.90;;;;;;4970759;28;20216;-75
2021/07/09 03:04:12;;;;;;;3.85;3.42;;;20.80;99.90;;;;;;4970678;28;20206;-75
2021/07/09 03:06:39;;;;;;;4.75;3.30;;;20.80;99.90;;;;;;4971895;28;20436;-75
2021/07/09 03:09:07;;;;;;;3.55;3.25;;;20.80;99.90;;;;;;4969013;28;20210;-75
2021/07/09 03:11:34;;;;;;;3.78;3.53;;;20.80;99.90;;;;;;4969533;28;20551;-75
2021/07/09 03:14:01;;;;;;;3.53;3.22;;;20.80;99.90;;;;;;4971412;28;20202;-75
2021/07/09 03:16:28;;;;;;;3.72;2.85;;;20.60;99.90;;;;;;4970774;28;20335;-76
2021/07/09 03:18:55;;;;;;;4.20;3.80;;;20.70;99.90;;;;;;4972736;28;20202;-75
2021/07/09 03:21:22;;;;;;;3.60;3.30;;;21.10;99.90;;;;;;4967437;28;20551;-77
2021/07/09 03:23:48;;;;;;;3.80;3.50;;;20.70;99.90;;;;;;4971917;28;20265;-76
2021/07/09 03:26:16;;;;;;;3.42;3.22;;;20.80;99.90;;;;;;4972599;28;20679;-76
2021/07/09 03:28:43;;;;;;;6.18;2.97;;;20.90;99.90;;;;;;4973344;28;20209;-76
2021/07/09 03:31:10;;;;;;;4.00;3.70;;;20.70;99.90;;;;;;4976279;28;20210;-76
2021/07/09 03:33:36;;;;;;;3.33;3.03;;;21.50;99.90;;;;;;4976997;28;20206;-76
2021/07/09 03:36:04;;;;;;;5.07;3.10;;;20.60;99.90;;;;;;4975758;28;20236;-76
2021/07/09 03:38:31;;;;;;;4.40;3.92;;;20.50;99.90;;;;;;4975101;28;20203;-76
2021/07/09 03:40:57;;;;;;;3.17;2.92;;;20.70;99.90;;;;;;4974191;28;20205;-76
2021/07/09 03:43:25;;;;;;;4.95;3.75;;;20.70;99.90;;;;;;4973885;28;20206;-76
2021/07/09 03:45:52;;;;;;;4.57;3.70;;;20.70;99.90;;;;;;4974374;28;20203;-76
2021/07/09 03:48:19;;;;;;;4.53;3.42;;;20.60;99.90;;;;;;4975320;28;20202;-75
2021/07/09 03:50:46;;;;;;;3.58;3.28;;;20.60;99.90;;;;;;4973771;28;20209;-76
2021/07/09 03:53:12;;;;;;;3.47;3.20;;;20.60;99.90;;;;;;4973474;28;20202;-76
2021/07/09 03:55:39;;;;;;;3.80;3.50;;;20.60;99.90;;;;;;4974531;28;20667;-76
2021/07/09 03:58:05;;;;;;;4.07;3.78;;;20.60;99.90;;;;;;4974344;28;20686;-76
2021/07/09 04:00:33;;;;;;;3.50;3.20;;;20.60;99.90;;;;;;4977195;28;20210;-76
2021/07/09 04:03:00;;;;;;;3.85;3.55;;;20.60;99.90;;;;;;4976267;28;20233;-76
2021/07/09 04:05:27;;;;;;;3.97;3.72;;;20.60;99.90;;;;;;4974807;28;20205;-77
2021/07/09 04:07:54;;;;;;;4.88;4.30;;;20.60;99.90;;;;;;4975425;28;20210;-76
2021/07/09 04:10:21;;;;;;;3.55;3.25;;;20.60;99.90;;;;;;4965978;28;20272;-76
2021/07/09 04:12:47;;;;;;;3.40;3.10;;;20.80;99.90;;;;;;4975192;28;20233;-76
2021/07/09 04:15:14;;;;;;;3.60;3.30;;;20.50;99.90;;;;;;4972992;28;20217;-76
2021/07/09 04:17:42;;;;;;;4.03;3.60;;;20.20;99.90;;;;;;4976074;28;20210;-76
2021/07/09 04:20:10;;;;;;;4.40;3.20;;;20.50;99.90;;;;;;4975457;28;20574;-78
2021/07/09 04:22:37;;;;;;;3.92;3.53;;;20.60;99.90;;;;;;4975606;28;20206;-76
2021/07/09 04:25:07;;;;;;;3.35;2.90;;;20.40;99.90;;;;;;4975686;28;20225;-77
2021/07/09 04:27:34;;;;;;;3.30;3.00;;;20.50;99.90;;;;;;4976184;28;20337;-76
2021/07/09 04:30:01;;;;;;;2.67;2.42;;;20.40;99.90;;;;;;4974701;28;20222;-76
2021/07/09 04:32:28;;;;;;;3.80;3.50;;;20.60;99.90;;;;;;4975760;28;20205;-76
2021/07/09 04:34:56;;;;;;;4.05;3.60;;;20.50;99.90;;;;;;4973478;28;20255;-76
2021/07/09 04:37:23;;;;;;;3.50;3.20;;;20.70;99.90;;;;;;4975260;28;20259;-76
2021/07/09 04:39:50;;;;;;;3.63;3.33;;;20.50;99.90;;;;;;4975467;28;20210;-76
2021/07/09 04:42:16;;;;;;;3.22;3.03;;;20.40;99.90;;;;;;4975936;28;20650;-76
2021/07/09 04:44:43;;;;;;;3.85;3.50;;;20.60;99.90;;;;;;4976182;28;20213;-76
2021/07/09 04:47:10;;;;;;;4.10;3.70;;;20.80;99.90;;;;;;4975865;28;20252;-77
2021/07/09 04:49:36;;;;;;;3.97;3.67;;;20.40;99.90;;;;;;4976906;28;20209;-76
2021/07/09 04:52:05;;;;;;;3.83;3.30;;;20.50;99.90;;;;;;4986218;28;20202;-77
2021/07/09 04:54:32;;;;;;;3.55;3.25;;;20.50;99.90;;;;;;4975571;28;20202;-77
2021/07/09 04:56:58;;;;;;;4.75;3.13;;;20.40;99.90;;;;;;4975815;28;20233;-77
2021/07/09 04:59:25;;;;;;;4.60;3.60;;;20.30;99.90;;;;;;4975655;28;20221;-77
2021/07/09 05:01:52;;;;;;;3.40;3.20;;;20.40;99.90;;;;;;4975434;28;20221;-77
2021/07/09 05:04:18;;;;;;;3.90;3.60;;;20.40;99.90;;;;;;4975850;28;20221;-77
2021/07/09 05:06:45;;;;;;;4.05;3.70;;;20.50;99.90;;;;;;4983146;28;20206;-77
2021/07/09 05:09:14;;;;;;;3.88;3.47;;;20.40;99.90;;;;;;4975477;28;20521;-77
2021/07/09 05:11:40;;;;;;;3.28;3.08;;;20.40;99.90;;;;;;4974872;28;20210;-77
2021/07/09 05:14:07;;;;;;;4.45;4.10;;;20.40;99.90;;;;;;4974913;28;20532;-74
2021/07/09 05:16:34;;;;;;;4.32;3.78;;;20.40;99.90;;;;;;4975274;28;20229;-76
2021/07/09 05:19:01;;;;;;;6.13;3.60;;;20.30;99.90;;;;;;4975404;28;20230;-76
2021/07/09 05:21:28;;;;;;;3.13;2.90;;;20.40;99.90;;;;;;4975396;28;20595;-76
2021/07/09 05:23:56;;;;;;;3.70;3.40;;;20.40;99.90;;;;;;4975049;28;20213;-76
2021/07/09 05:26:24;;;;;;;4.13;3.80;;;20.40;99.90;;;;;;4974962;28;20230;-77
2021/07/09 05:28:51;;;;;;;3.15;2.85;;;20.40;99.90;;;;;;4975027;28;20198;-76
2021/07/09 05:31:18;;;;;;;3.60;3.30;;;20.20;99.90;;;;;;4975258;28;20288;-76
2021/07/09 05:33:45;;;;;;;4.30;3.90;;;20.40;99.90;;;;;;4975140;28;20659;-76
2021/07/09 05:36:13;;;;;;;3.75;3.45;;;20.30;99.90;;;;;;4974613;28;20603;-76
2021/07/09 05:38:39;;;;;;;4.15;3.75;;;20.40;99.90;;;;;;4975202;28;20202;-76
2021/07/09 05:41:06;;;;;;;4.25;3.95;;;20.50;99.90;;;;;;4974079;28;20221;-76
2021/07/09 05:43:34;;;;;;;4.10;3.60;;;20.30;99.90;;;;;;4974636;28;20210;-76
2021/07/09 05:46:02;;;;;;;6.75;6.15;;;20.30;99.90;;;;;;4974823;28;20198;-76
2021/07/09 05:48:28;;;;;;;6.32;5.80;;;20.40;99.90;;;;;;4975061;28;20206;-76
2021/07/09 05:50:55;;;;;;;5.35;4.95;;;20.60;99.90;;;;;;4973758;28;20195;-76
2021/07/09 05:53:22;;;;;;;4.95;4.55;;;20.40;99.90;;;;;;4974746;28;20213;-76
2021/07/09 05:55:49;;;;;;;4.82;4.43;;;20.40;99.90;;;;;;4974046;28;20202;-76
2021/07/09 05:58:16;;;;;;;6.13;5.47;;;20.30;99.90;;;;;;4974817;28;20596;-76
2021/07/09 06:00:44;;;;;;;6.88;4.97;;;20.30;99.90;;;;;;4974250;28;20201;-77
2021/07/09 06:03:11;;;;;;;5.75;5.25;;;20.30;99.90;;;;;;4974572;28;20221;-76
2021/07/09 06:05:37;;;;;;;4.95;4.60;;;20.40;99.90;;;;;;4972943;28;20575;-76
2021/07/09 06:08:05;;;;;;;6.13;5.30;;;20.30;99.90;;;;;;4973048;28;20639;-76
2021/07/09 06:10:31;;;;;;;4.25;3.85;;;20.40;99.90;;;;;;4972675;28;20631;-77
2021/07/09 06:12:58;;;;;;;4.47;3.83;;;20.40;99.90;;;;;;4972977;28;20203;-77
2021/07/09 06:15:25;;;;;;;6.30;4.80;;;20.30;99.90;;;;;;4972070;28;20631;-76
2021/07/09 06:17:54;;;;;;;3.80;3.50;;;20.20;99.90;;;;;;4972937;28;20233;-77
2021/07/09 06:20:20;;;;;;;3.58;3.30;;;20.30;99.90;;;;;;4972750;28;20266;-76
2021/07/09 06:22:47;;;;;;;3.67;3.38;;;20.30;99.90;;;;;;4972878;28;20210;-77
2021/07/09 06:25:15;;;;;;;5.57;3.95;;;20.40;99.90;;;;;;4972459;28;20210;-76
2021/07/09 06:27:42;;;;;;;3.80;3.50;;;20.40;99.90;;;;;;4972301;28;20218;-77
2021/07/09 06:30:10;;;;;;;6.20;3.15;;;20.50;99.90;;;;;;4970118;28;20198;-76
2021/07/09 06:32:37;;;;;;;5.28;4.45;;;20.40;99.90;;;;;;4971033;28;20202;-76
2021/07/09 06:35:09;;;;;;;5.57;3.22;;;20.60;99.90;;;;;;4972222;28;20205;-77
2021/07/09 06:37:37;;;;;;;3.38;3.08;;;20.40;99.90;;;;;;4972718;28;20232;-76
2021/07/09 06:40:06;;;;;;;5.10;4.43;;;20.60;99.90;;;;;;4972244;28;20298;-77
2021/07/09 06:42:33;;;;;;;4.90;4.50;;;20.50;99.90;;;;;;4972637;28;20214;-77
2021/07/09 06:45:00;;;;;;;5.70;5.20;;;20.50;99.90;;;;;;4969391;28;20206;-76
2021/07/09 06:47:26;;;;;;;4.50;4.10;;;20.80;99.90;;;;;;4971117;28;20210;-77
2021/07/09 06:49:53;;;;;;;4.43;3.70;;;20.50;99.90;;;;;;4972412;28;20210;-79
2021/07/09 06:52:21;;;;;;;4.28;3.90;;;20.50;99.90;;;;;;4972538;28;20209;-76
2021/07/09 06:54:48;;;;;;;4.70;3.70;;;20.50;99.90;;;;;;4972657;28;20659;-76
2021/07/09 06:57:14;;;;;;;3.58;3.38;;;20.60;99.90;;;;;;4971240;28;20319;-76
2021/07/09 06:59:42;;;;;;;3.50;3.20;;;20.50;99.90;;;;;;4968904;28;20234;-75
2021/07/09 07:02:09;;;;;;;3.60;3.30;;;20.60;99.90;;;;;;4971959;28;20221;-77
2021/07/09 07:04:36;;;;;;;5.85;3.75;;;20.50;99.90;;;;;;4976057;28;20210;-77
2021/07/09 07:07:03;;;;;;;4.38;4.00;;;20.70;99.90;;;;;;4976662;28;20247;-79
2021/07/09 07:09:32;;;;;;;4.68;3.33;;;20.70;99.90;;;;;;4975985;28;20539;-78
2021/07/09 07:12:02;;;;;;;3.88;3.58;;;20.70;99.90;;;;;;4976278;28;20567;-77
2021/07/09 07:14:29;;;;;;;4.10;3.65;;;20.80;99.90;;;;;;4974244;28;20285;-76
2021/07/09 07:16:56;;;;;;;3.70;3.45;;;20.80;99.90;;;;;;4974820;28;20241;-76
2021/07/09 07:19:22;;;;;;;3.90;3.50;;;20.80;99.90;;;;;;4974965;28;20651;-76
2021/07/09 07:21:49;;;;;;;3.50;3.20;;;20.90;99.90;;;;;;4977278;28;20611;-76
2021/07/09 07:24:16;;;;;;;6.03;3.38;;;21.10;99.90;;;;;;4977205;28;20237;-77
2021/07/09 07:26:44;;;;;;;4.03;3.60;;;21.10;99.90;;;;;;4976402;28;20218;-77
2021/07/09 07:29:11;;;;;;;3.60;3.28;;;21.30;99.90;;;;;;4976818;28;20206;-77
2021/07/09 07:31:38;;;;;;;4.30;3.90;;;21.30;99.90;;;;;;4976802;28;20206;-76
2021/07/09 07:34:05;;;;;;;3.20;3.00;;;21.40;99.90;;;;;;4975016;28;20199;-77
2021/07/09 07:36:31;;;;;;;2.92;2.70;;;21.50;99.90;;;;;;4976763;28;20222;-77
2021/07/09 07:38:58;;;;;;;3.45;3.00;;;21.50;99.90;;;;;;4976051;28;20214;-76
2021/07/09 07:41:25;;;;;;;3.55;3.30;;;21.50;99.90;;;;;;4976480;28;20272;-76
2021/07/09 07:43:53;;;;;;;4.30;3.88;;;21.50;99.90;;;;;;4976912;28;20210;-76
2021/07/09 07:46:19;;;;;;;2.95;2.75;;;21.60;99.90;;;;;;4968476;28;20213;-77
2021/07/09 07:48:46;;;;;;;4.70;3.83;;;21.40;99.90;;;;;;4976942;28;20213;-77
2021/07/09 07:51:13;;;;;;;3.30;3.00;;;21.40;99.90;;;;;;4976806;28;20579;-77
2021/07/09 07:53:40;;;;;;;2.63;2.40;;;21.30;99.90;;;;;;4976621;28;20562;-77
2021/07/09 07:56:08;;;;;;;4.30;3.60;;;21.40;99.90;;;;;;4975757;28;20210;-76
2021/07/09 07:58:34;;;;;;;4.93;3.45;;;21.30;99.90;;;;;;4975901;28;20747;-76
2021/07/09 08:01:02;;;;;;;3.22;3.03;;;21.60;99.90;;;;;;4976186;28;20217;-76
2021/07/09 08:03:29;;;;;;;3.17;2.70;;;21.40;99.90;;;;;;4976753;28;20210;-77
2021/07/09 08:05:56;;;;;;;3.03;2.72;;;21.30;99.90;;;;;;4976461;28;20202;-76
2021/07/09 08:08:23;;;;;;;5.57;3.35;;;21.50;99.90;;;;;;4976412;28;20257;-76
2021/07/09 08:10:50;;;;;;;2.67;2.47;;;21.30;99.90;;;;;;4975641;28;20660;-77
2021/07/09 08:13:16;;;;;;;3.65;3.35;;;21.30;99.90;;;;;;4975488;28;20222;-76
2021/07/09 08:15:43;;;;;;;11.13;8.00;;;21.10;99.90;;;;;;4976461;28;20214;-76
2021/07/09 08:18:11;;;;;;;4.72;4.38;;;21.40;99.90;;;;;;4976362;28;20253;-75
2021/07/09 08:20:38;;;;;;;7.10;4.32;;;21.30;99.90;;;;;;4976238;28;20218;-76
2021/07/09 08:23:05;;;;;;;11.35;4.43;;;21.40;99.90;;;;;;4975799;28;20213;-76
2021/07/09 08:25:31;;;;;;;6.97;5.18;;;21.40;99.90;;;;;;4973762;28;20214;-76
2021/07/09 08:27:58;;;;;;;4.78;4.28;;;21.40;99.90;;;;;;4973527;28;20230;-76
2021/07/09 08:30:25;;;;;;;4.90;4.43;;;21.50;99.90;;;;;;4973314;28;20206;-76
2021/07/09 08:32:51;;;;;;;7.20;3.60;;;21.50;99.90;;;;;;4973411;28;20243;-76
2021/07/09 08:35:19;;;;;;;4.50;4.10;;;21.90;99.90;;;;;;4975491;28;20206;-76
2021/07/09 08:37:46;;;;;;;5.57;3.85;;;21.50;99.90;;;;;;4975800;28;20218;-75
2021/07/09 08:40:14;;;;;;;4.82;3.70;;;21.60;99.90;;;;;;4974198;28;20199;-75
2021/07/09 08:42:40;;;;;;;4.00;3.30;;;21.60;99.90;;;;;;4975323;28;20213;-76
2021/07/09 08:45:08;;;;;;;4.80;4.40;;;21.70;99.90;;;;;;4974753;28;20225;-76
2021/07/09 08:47:35;;;;;;;3.92;3.47;;;21.70;99.90;;;;;;4975134;28;20210;-76
2021/07/09 08:50:05;;;;;;;7.53;4.60;;;21.70;99.90;;;;;;4974853;28;20221;-76
2021/07/09 08:52:35;;;;;;;5.25;3.80;;;21.80;99.90;;;;;;4973990;28;20220;-77
2021/07/09 08:55:02;;;;;;;4.28;3.90;;;21.70;99.90;;;;;;4971414;28;20203;-77
2021/07/09 08:57:29;;;;;;;3.45;3.15;;;21.90;99.90;;;;;;4971078;28;20229;-77
2021/07/09 08:59:56;;;;;;;3.88;3.38;;;21.60;99.90;;;;;;4972483;28;20217;-76
2021/07/09 09:02:26;;;;;;;3.95;3.30;;;22.20;99.90;;;;;;4970927;28;20202;-77
2021/07/09 09:04:55;;;;;;;6.43;4.50;;;22.00;99.90;;;;;;4972387;28;20567;-76
2021/07/09 09:07:28;;;;;;;4.05;3.60;;;21.80;99.90;;;;;;4973900;28;20268;-77
2021/07/09 09:09:56;;;;;;;12.45;11.15;;;22.00;99.90;;;;;;4975023;28;20623;-76
2021/07/09 09:12:23;;;;;;;6.65;5.15;;;22.00;99.90;;;;;;4975673;28;20593;-77
2021/07/09 09:14:52;;;;;;;6.53;5.80;;;22.10;99.90;;;;;;4975040;28;20517;-77
2021/07/09 09:17:31;;;;;;;6.32;5.03;;;22.20;99.90;;;;;;4975065;28;20564;-75
2021/07/09 09:20:13;;;;;;;6.63;4.33;;;22.50;99.90;;;;;;4975195;28;20218;-75
2021/07/09 09:22:55;;;;;;;5.57;4.50;;;22.40;99.90;;;;;;4955902;28;20462;-75
2021/07/09 09:25:25;;;;;;;6.72;5.03;;;22.40;99.90;;;;;;4971350;28;20449;-75
2021/07/09 09:28:05;;;;;;;8.55;4.25;;;22.50;99.90;;;;;;4975161;28;20238;-75
2021/07/09 09:30:32;;;;;;;5.47;4.67;;;22.50;99.90;;;;;;4974553;28;20205;-76
2021/07/09 09:33:03;;;;;;;6.33;5.40;;;22.60;99.90;;;;;;4975271;28;20453;-74
2021/07/09 09:35:31;;;;;;;6.43;4.68;;;22.60;99.90;;;;;;4974145;28;20445;-77
2021/07/09 09:38:01;;;;;;;4.60;4.20;;;22.60;99.90;;;;;;4973851;28;20233;-76
2021/07/09 09:40:32;;;;;;;5.43;3.93;;;22.60;99.90;;;;;;4974172;28;20464;-74
2021/07/09 09:43:03;;;;;;;4.30;3.90;;;22.70;99.90;;;;;;4974128;28;20791;-73
2021/07/09 09:45:30;;;;;;;4.73;4.33;;;22.70;99.90;;;;;;4974488;28;20449;-73
2021/07/09 09:48:06;;;;;;;4.70;4.30;;;22.70;99.90;;;;;;4974929;28;20445;-74
2021/07/09 09:50:42;;;;;;;9.10;4.80;;;22.80;99.90;;;;;;4970522;28;20455;-75
2021/07/09 09:53:09;;;;;;;4.37;3.97;;;22.80;99.90;;;;;;4974151;28;20449;-74
2021/07/09 09:55:37;;;;;;;5.80;5.30;;;22.90;99.90;;;;;;4974040;28;20753;-75
2021/07/09 09:58:15;;;;;;;3.80;3.37;;;22.90;99.90;;;;;;4973760;28;20480;-75
2021/07/09 10:00:43;;;;;;;5.93;5.17;;;22.80;99.90;;;;;;4974033;28;20453;-75
2021/07/09 10:03:10;;;;;;;4.50;4.10;;;23.00;99.90;;;;;;4973830;28;20803;-75
2021/07/09 10:05:39;;;;;;;6.83;4.63;;;23.00;99.90;;;;;;4972663;28;20445;-75
2021/07/09 10:08:10;;;;;;;3.83;3.33;;;23.10;99.90;;;;;;4972816;28;20504;-75
2021/07/09 10:10:39;;;;;;;4.80;4.10;;;23.10;99.90;;;;;;4972902;28;20532;-75
2021/07/09 10:13:06;;;;;;;4.83;4.10;;;23.10;99.90;;;;;;4973046;28;20449;-75
2021/07/09 10:15:33;;;;;;;4.90;4.43;;;23.20;99.90;;;;;;4972839;28;20481;-75
2021/07/09 10:18:00;;;;;;;5.20;4.70;;;23.20;99.90;;;;;;4972406;28;20477;-75
2021/07/09 10:20:28;;;;;;;5.67;5.07;;;23.20;99.90;;;;;;4972759;28;20465;-75
2021/07/09 10:22:57;;;;;;;4.90;4.50;;;23.20;99.90;;;;;;4972849;28;20519;-75
2021/07/09 10:25:25;;;;;;;4.80;4.30;;;23.20;99.90;;;;;;4972581;28;20472;-75
2021/07/09 10:27:53;;;;;;;5.13;4.60;;;23.20;99.90;;;;;;4972416;28;20894;-75
2021/07/09 10:30:20;;;;;;;5.63;5.13;;;23.30;99.90;;;;;;4973042;28;20452;-75
2021/07/09 10:32:49;;;;;;;5.47;4.90;;;23.20;99.90;;;;;;4973005;28;20449;-75
2021/07/09 10:35:34;;;;;;;5.37;4.77;;;23.80;99.90;;;;;;4971875;28;20452;-75
2021/07/09 10:38:11;;;;;;;5.80;4.60;;;23.10;99.90;;;;;;4970258;28;20476;-75
2021/07/09 10:40:39;;;;;;;4.63;4.23;;;23.10;99.90;;;;;;4973605;28;20460;-75
2021/07/09 10:43:10;;;;;;;5.10;4.63;;;23.20;99.90;;;;;;4973745;28;20458;-75
2021/07/09 10:45:37;;;;;;;5.37;4.90;;;23.10;99.90;;;;;;4973903;28;20469;-75
2021/07/09 10:48:09;;;;;;;4.13;3.83;;;23.20;99.90;;;;;;4973713;28;20442;-75
2021/07/09 10:50:46;;;;;;;5.13;3.83;;;23.20;99.90;;;;;;4973979;28;20457;-75
2021/07/09 10:53:23;;;;;;;5.50;3.67;;;23.20;99.90;;;;;;4973611;28;20919;-75
2021/07/09 10:55:52;;;;;;;4.10;3.80;;;23.20;99.90;;;;;;4973284;28;20551;-75
2021/07/09 10:58:36;;;;;;;4.90;4.50;;;23.20;99.90;;;;;;4973535;28;20481;-75
2021/07/09 11:01:24;;;;;;;6.83;4.50;;;23.40;99.90;;;;;;4973074;28;20445;-75
2021/07/09 11:04:08;;;;;;;4.83;4.43;;;23.30;99.90;;;;;;4973213;28;20477;-75
2021/07/09 11:06:41;;;;;;;5.03;4.60;;;23.70;99.90;;;;;;4973646;28;20438;-75
2021/07/09 11:09:09;;;;;;;5.90;4.83;;;23.30;99.90;;;;;;4973590;28;20478;-75
2021/07/09 11:11:43;;;;;;;5.23;4.73;;;23.40;99.90;;;;;;4973655;28;20508;-75
2021/07/09 11:14:13;;;;;;;4.53;4.13;;;23.40;99.90;;;;;;4972110;28;20791;-75
2021/07/09 11:16:41;;;;;;;3.27;3.00;;;23.30;99.90;;;;;;4971902;28;20453;-75
2021/07/09 11:19:13;;;;;;;8.67;4.43;;;23.40;99.90;;;;;;4970055;28;20488;-75
2021/07/09 11:22:02;;;;;;;6.10;4.00;;;23.40;99.90;;;;;;4970340;28;20806;-75
2021/07/09 11:24:31;;;;;;;3.90;3.60;;;23.40;99.90;;;;;;4971945;28;20445;-75
2021/07/09 11:26:59;;;;;;;3.97;3.67;;;23.40;99.90;;;;;;4971850;28;20485;-77
2021/07/09 11:29:34;;;;;;;4.57;4.17;;;23.40;99.90;;;;;;4972015;28;20460;-74
2021/07/09 11:32:02;;;;;;;4.33;3.57;;;23.40;99.90;;;;;;4967244;28;20742;-79
2021/07/09 11:34:32;;;;;;;5.07;4.67;;;23.70;99.90;;;;;;4971072;28;20783;-76
2021/07/09 11:37:00;;;;;;;4.50;4.10;;;23.30;99.90;;;;;;4972296;28;20441;-73
2021/07/09 11:39:28;;;;;;;5.47;3.77;;;23.30;99.90;;;;;;4971777;28;21020;-76
2021/07/09 11:42:14;;;;;;;4.83;4.43;;;23.50;99.90;;;;;;4972527;28;20462;-76
2021/07/09 11:44:45;;;;;;;4.20;3.87;;;23.50;99.90;;;;;;4973083;28;20437;-77
2021/07/09 11:47:14;;;;;;;4.10;3.80;;;23.50;99.90;;;;;;4973167;28;20445;-75
2021/07/09 11:49:45;;;;;;;3.53;3.23;;;23.70;99.90;;;;;;4974021;28;20465;-76
2021/07/09 11:52:14;;;;;;;4.10;3.80;;;23.40;99.90;;;;;;4971264;28;20438;-75
2021/07/09 11:54:44;;;;;;;4.13;3.77;;;23.50;99.90;;;;;;4975087;28;20457;-75
2021/07/09 11:57:13;;;;;;;5.73;3.70;;;23.50;99.90;;;;;;4976063;28;20449;-76
2021/07/09 11:59:43;;;;;;;3.93;3.53;;;23.60;99.90;;;;;;4975095;28;20492;-75
2021/07/09 12:02:19;;;;;;;4.73;3.47;;;23.40;99.90;;;;;;4974024;28;21196;-76
2021/07/09 12:04:49;;;;;;;4.73;4.07;;;23.50;99.90;;;;;;4971818;28;20759;-76
2021/07/09 12:07:21;;;;;;;5.23;4.00;;;23.50;99.90;;;;;;4971890;28;20890;-74
2021/07/09 12:09:50;;;;;;;3.67;3.43;;;23.50;99.90;;;;;;4973297;28;20441;-76
2021/07/09 12:12:17;;;;;;;3.70;3.40;;;23.50;99.90;;;;;;4973662;28;20461;-76
2021/07/09 12:15:00;;;;;;;3.77;3.47;;;23.50;99.90;;;;;;4975002;28;20610;-76
2021/07/09 12:17:30;;;;;;;3.60;3.30;;;23.50;99.90;;;;;;4973482;28;20450;-75
2021/07/09 12:20:00;;;;;;;4.13;3.73;;;23.70;99.90;;;;;;4972425;28;20473;-75
2021/07/09 12:22:29;;;;;;;7.00;3.93;;;23.50;99.90;;;;;;4974902;28;20485;-75
2021/07/09 12:24:56;;;;;;;4.33;3.93;;;23.70;99.90;;;;;;4975162;28;20450;-76
2021/07/09 12:27:23;;;;;;;3.77;3.47;;;23.40;99.90;;;;;;4974176;28;20485;-75
2021/07/09 12:29:51;;;;;;;4.27;3.87;;;23.50;99.90;;;;;;4974883;28;20446;-75
2021/07/09 12:32:18;;;;;;;4.07;3.77;;;23.50;99.90;;;;;;4971691;28;20449;-76
2021/07/09 12:34:46;;;;;;;4.10;3.60;;;23.50;99.90;;;;;;4971690;28;20450;-76
2021/07/09 12:37:13;;;;;;;3.60;3.40;;;23.40;99.90;;;;;;4974277;28;20532;-77
2021/07/09 12:39:40;;;;;;;4.67;4.23;;;23.60;99.90;;;;;;4974545;28;20485;-75
2021/07/09 12:42:14;;;;;;;4.70;4.30;;;23.60;99.90;;;;;;4975371;28;20445;-78
2021/07/09 12:44:55;;;;;;;3.83;3.43;;;23.60;99.90;;;;;;4975017;28;20761;-78
2021/07/09 12:47:21;;;;;;;4.37;4.03;;;23.60;99.90;;;;;;4973967;28;20449;-75
2021/07/09 12:49:49;;;;;;;6.10;3.77;;;24.10;99.90;;;;;;4975213;28;20516;-76
2021/07/09 12:52:17;;;;;;;3.40;3.10;;;23.90;99.90;;;;;;4975801;28;20461;-75